createdAt,value
2022-12-26T00:02:08.739Z,3.47
2022-12-26T00:04:51.957Z,1.95
2022-12-26T00:07:23.645Z,3.78
2022-12-26T00:09:53.763Z,2.83
2022-12-26T00:12:23.948Z,2.53
2022-12-26T00:14:56.638Z,3.03
2022-12-26T00:17:26.819Z,4.20
2022-12-26T00:19:56.917Z,3.45
2022-12-26T00:22:27.075Z,5.00
2022-12-26T00:24:57.180Z,2.95
2022-12-26T00:27:27.257Z,2.78
2022-12-26T00:30:07.706Z,4.35
2022-12-26T00:32:37.839Z,5.07
2022-12-26T00:35:09.257Z,5.05
2022-12-26T00:37:39.479Z,3.22
2022-12-26T00:40:12.097Z,3.80
2022-12-26T00:42:42.258Z,4.15
2022-12-26T00:45:15.389Z,3.60
2022-12-26T00:47:45.449Z,4.53
2022-12-26T00:50:16.108Z,6.35
2022-12-26T00:52:46.761Z,3.88
2022-12-26T00:55:16.919Z,3.90
2022-12-26T00:57:47.352Z,2.38
2022-12-26T01:00:23.368Z,3.95
2022-12-26T01:02:54.081Z,3.00
2022-12-26T01:05:24.388Z,2.92
2022-12-26T01:08:19.446Z,3.47
2022-12-26T01:10:49.813Z,2.70
2022-12-26T01:13:19.955Z,3.75
2022-12-26T01:15:57.111Z,3.70
2022-12-26T01:18:27.248Z,2.53
2022-12-26T01:21:03.265Z,3.10
2022-12-26T01:23:33.390Z,4.10
2022-12-26T01:26:18.456Z,3.65
2022-12-26T01:28:50.735Z,3.83
2022-12-26T01:31:25.550Z,2.70
2022-12-26T01:33:55.670Z,3.97
2022-12-26T01:36:25.858Z,4.93
2022-12-26T01:38:55.965Z,4.28
2022-12-26T01:41:27.802Z,4.57
2022-12-26T01:44:01.908Z,3.88
2022-12-26T01:46:41.790Z,3.95
2022-12-26T01:49:21.547Z,3.33
2022-12-26T01:51:59.857Z,1.98
2022-12-26T01:54:38.571Z,3.95
2022-12-26T01:57:20.226Z,2.90
2022-12-26T01:59:54.244Z,2.95
2022-12-26T02:02:52.361Z,2.95
2022-12-26T02:05:35.335Z,2.95
2022-12-26T02:08:13.148Z,2.33
2022-12-26T02:10:51.269Z,3.08
2022-12-26T02:13:22.838Z,2.80
2022-12-26T02:15:52.933Z,3.75
2022-12-26T02:18:27.847Z,3.95
2022-12-26T02:21:17.318Z,3.85
2022-12-26T02:24:30.431Z,5.03
2022-12-26T02:27:38.112Z,4.25
2022-12-26T02:30:47.442Z,2.55
2022-12-26T02:33:45.710Z,3.35
2022-12-26T02:36:42.356Z,3.78
2022-12-26T02:39:45.455Z,2.83
2022-12-26T02:42:35.851Z,2.90
2022-12-26T02:45:31.233Z,2.55
2022-12-26T02:48:15.273Z,2.28
2022-12-26T02:51:18.391Z,3.50
2022-12-26T02:54:13.032Z,3.05
2022-12-26T02:57:04.898Z,3.10
2022-12-26T03:00:01.808Z,3.50
2022-12-26T03:02:53.670Z,2.55
2022-12-26T03:05:48.220Z,2.83
2022-12-26T03:08:41.949Z,3.75
2022-12-26T03:11:25.446Z,3.47
2022-12-26T03:14:07.422Z,3.88
2022-12-26T03:16:50.297Z,3.92
2022-12-26T03:19:22.633Z,4.63
2022-12-26T03:21:56.011Z,4.05
2022-12-26T03:24:47.896Z,6.40
2022-12-26T03:27:15.494Z,3.88
2022-12-26T03:29:58.112Z,3.50
2022-12-26T03:32:28.556Z,2.30
2022-12-26T03:34:56.166Z,1.90
2022-12-26T03:37:55.683Z,2.00
2022-12-26T03:41:04.271Z,2.88
2022-12-26T03:44:05.158Z,3.40
2022-12-26T03:47:00.268Z,2.92
2022-12-26T03:49:49.127Z,1.90
2022-12-26T03:52:42.321Z,1.55
2022-12-26T03:55:41.173Z,1.90
2022-12-26T03:58:31.023Z,2.63
2022-12-26T04:01:17.120Z,2.10
2022-12-26T04:04:03.464Z,1.65
2022-12-26T04:07:00.065Z,2.70
2022-12-26T04:09:51.330Z,2.90
2022-12-26T04:12:43.333Z,3.92
2022-12-26T04:15:38.328Z,2.33
2022-12-26T04:18:28.320Z,3.22
2022-12-26T04:21:36.357Z,3.28
2022-12-26T04:24:27.537Z,1.65
2022-12-26T04:27:16.606Z,2.85
2022-12-26T04:30:02.674Z,2.92
2022-12-26T04:32:57.147Z,2.13
2022-12-26T04:35:49.163Z,3.10
2022-12-26T04:38:39.397Z,3.08
2022-12-26T04:41:25.599Z,2.22
2022-12-26T04:44:06.569Z,4.32
2022-12-26T04:46:44.665Z,2.40
2022-12-26T04:49:32.107Z,2.65
2022-12-26T04:52:06.497Z,2.60
2022-12-26T04:54:37.129Z,2.83
2022-12-26T04:57:09.920Z,2.53
2022-12-26T04:59:40.076Z,2.22
2022-12-26T05:02:31.144Z,2.63
2022-12-26T05:05:13.910Z,4.13
2022-12-26T05:07:56.442Z,3.35
2022-12-26T05:10:29.356Z,3.30
2022-12-26T05:12:59.685Z,2.33
2022-12-26T05:15:49.853Z,3.92
2022-12-26T05:18:46.400Z,1.85
2022-12-26T05:21:34.145Z,2.33
2022-12-26T05:24:16.648Z,1.70
2022-12-26T05:26:59.428Z,2.78
2022-12-26T05:29:30.774Z,2.28
2022-12-26T05:32:00.872Z,1.73
2022-12-26T05:34:30.930Z,2.70
2022-12-26T05:37:02.632Z,2.97
2022-12-26T05:39:32.736Z,2.88
2022-12-26T05:42:02.927Z,3.05
2022-12-26T05:44:32.969Z,3.58
2022-12-26T05:47:03.139Z,4.10
2022-12-26T05:49:35.815Z,4.00
2022-12-26T05:52:06.243Z,2.20
2022-12-26T05:54:36.329Z,2.50
2022-12-26T05:57:06.647Z,2.40
2022-12-26T05:59:36.687Z,3.40
2022-12-26T06:02:06.878Z,2.28
2022-12-26T06:04:40.030Z,2.67
2022-12-26T06:07:13.750Z,4.05
2022-12-26T06:09:43.858Z,2.35
2022-12-26T06:12:13.999Z,2.25
2022-12-26T06:14:44.077Z,2.83
2022-12-26T06:17:15.236Z,1.83
2022-12-26T06:19:47.878Z,3.10
2022-12-26T06:22:18.025Z,2.15
2022-12-26T06:24:48.230Z,1.60
2022-12-26T06:27:18.378Z,1.10
2022-12-26T06:29:48.956Z,4.10
2022-12-26T06:32:19.169Z,1.33
2022-12-26T06:34:55.120Z,1.00
2022-12-26T06:37:25.288Z,0.73
2022-12-26T06:39:55.552Z,1.42
2022-12-26T06:42:26.464Z,0.90
2022-12-26T06:44:56.543Z,1.77
2022-12-26T06:47:26.761Z,1.08
2022-12-26T06:49:59.439Z,0.90
2022-12-26T06:52:30.018Z,1.05
2022-12-26T06:55:02.970Z,2.28
2022-12-26T06:57:33.112Z,1.88
2022-12-26T07:00:05.490Z,0.90
2022-12-26T07:02:35.777Z,1.73
2022-12-26T07:05:09.631Z,0.88
2022-12-26T07:07:39.717Z,1.10
2022-12-26T07:10:11.199Z,1.30
2022-12-26T07:12:43.505Z,1.50
2022-12-26T07:15:14.278Z,1.65
2022-12-26T07:17:44.443Z,0.95
2022-12-26T07:20:17.357Z,1.48
2022-12-26T07:22:47.466Z,2.03
2022-12-26T07:25:17.704Z,2.70
2022-12-26T07:27:47.761Z,3.38
2022-12-26T07:30:18.252Z,2.13
2022-12-26T07:32:48.334Z,2.75
2022-12-26T07:35:21.121Z,2.70
2022-12-26T07:37:51.246Z,2.10
2022-12-26T07:40:21.388Z,5.53
2022-12-26T07:42:51.462Z,3.17
2022-12-26T07:45:21.666Z,2.47
2022-12-26T07:47:55.566Z,2.10
2022-12-26T07:50:30.390Z,2.45
2022-12-26T07:53:02.585Z,1.63
2022-12-26T07:55:32.727Z,2.35
2022-12-26T07:58:02.777Z,1.65
2022-12-26T08:00:32.939Z,2.80
2022-12-26T08:03:07.848Z,2.85
2022-12-26T08:05:40.857Z,1.95
2022-12-26T08:08:11.434Z,1.58
2022-12-26T08:10:42.792Z,3.20
2022-12-26T08:13:14.393Z,2.10
2022-12-26T08:15:44.611Z,2.28
2022-12-26T08:18:14.776Z,1.75
2022-12-26T08:20:49.457Z,2.42
2022-12-26T08:23:20.087Z,2.70
2022-12-26T08:25:50.140Z,2.38
2022-12-26T08:28:20.248Z,2.78
2022-12-26T08:30:52.462Z,6.95
2022-12-26T08:33:23.230Z,6.30
2022-12-26T08:35:56.023Z,6.13
2022-12-26T08:38:31.753Z,5.75
2022-12-26T08:41:05.111Z,2.60
2022-12-26T08:44:16.084Z,3.25
2022-12-26T08:46:26.876Z,2.72
2022-12-26T08:48:57.025Z,2.08
2022-12-26T08:51:29.705Z,1.67
2022-12-26T08:53:59.882Z,1.42
2022-12-26T08:56:31.695Z,1.77
2022-12-26T08:59:01.849Z,2.67
2022-12-26T09:01:34.301Z,1.73
2022-12-26T09:04:07.669Z,2.20
2022-12-26T09:06:42.293Z,2.20
2022-12-26T09:09:14.854Z,1.13
2022-12-26T09:11:46.116Z,3.72
2022-12-26T09:14:17.057Z,1.67
2022-12-26T09:16:50.950Z,1.73
2022-12-26T09:19:29.800Z,0.77
2022-12-26T09:22:18.624Z,1.42
2022-12-26T09:24:48.710Z,1.10
2022-12-26T09:27:21.352Z,2.65
2022-12-26T09:29:51.421Z,2.28
2022-12-26T09:32:21.485Z,1.92
2022-12-26T09:34:52.529Z,1.48
2022-12-26T09:37:29.651Z,2.63
2022-12-26T09:39:59.778Z,1.35
2022-12-26T09:42:43.000Z,1.10
2022-12-26T09:45:17.981Z,0.98
2022-12-26T09:48:07.629Z,1.52
2022-12-26T09:50:43.332Z,1.23
2022-12-26T09:53:22.340Z,2.00
2022-12-26T09:55:59.162Z,2.25
2022-12-26T09:58:33.918Z,2.28
2022-12-26T10:01:12.757Z,4.35
2022-12-26T10:03:46.458Z,1.67
2022-12-26T10:06:21.899Z,2.60
2022-12-26T10:09:26.254Z,3.00
2022-12-26T10:12:31.971Z,2.47
2022-12-26T10:15:23.288Z,1.52
2022-12-26T10:17:58.939Z,2.45
2022-12-26T10:20:47.508Z,2.17
2022-12-26T10:23:49.621Z,3.45
2022-12-26T10:26:27.404Z,2.00
2022-12-26T10:29:04.939Z,2.10
2022-12-26T10:31:41.594Z,1.83
2022-12-26T10:34:21.316Z,2.03
2022-12-26T10:36:55.974Z,1.75
2022-12-26T10:39:33.390Z,3.67
2022-12-26T10:42:21.654Z,3.53
2022-12-26T10:44:51.747Z,2.55
2022-12-26T10:47:33.377Z,2.75
2022-12-26T10:50:03.474Z,2.65
2022-12-26T10:52:43.940Z,2.13
2022-12-26T10:55:28.857Z,2.78
2022-12-26T10:58:10.075Z,2.17
2022-12-26T11:00:40.274Z,2.08
2022-12-26T11:03:13.303Z,2.33
2022-12-26T11:06:06.934Z,2.42
2022-12-26T11:08:44.280Z,2.30
2022-12-26T11:11:23.246Z,2.63
2022-12-26T11:14:02.865Z,2.97
2022-12-26T11:16:40.418Z,2.47
2022-12-26T11:19:29.744Z,2.65
2022-12-26T11:22:28.591Z,2.45
2022-12-26T11:25:19.987Z,2.95
2022-12-26T11:27:55.371Z,2.05
2022-12-26T11:30:35.763Z,3.58
2022-12-26T11:33:15.855Z,2.63
2022-12-26T11:36:07.756Z,3.85
2022-12-26T11:38:50.690Z,2.25
2022-12-26T11:41:44.024Z,3.17
2022-12-26T11:44:24.673Z,3.08
2022-12-26T11:47:03.274Z,2.30
2022-12-26T11:49:38.030Z,1.90
2022-12-26T11:52:39.447Z,3.03
2022-12-26T11:55:37.173Z,4.30
2022-12-26T11:58:24.882Z,2.47
2022-12-26T12:01:18.251Z,3.70
2022-12-26T12:03:52.324Z,3.55
2022-12-26T12:06:47.306Z,3.13
2022-12-26T12:09:28.478Z,2.60
2022-12-26T12:12:09.509Z,2.95
2022-12-26T12:15:06.985Z,2.17
2022-12-26T12:17:48.066Z,5.15
2022-12-26T12:20:51.881Z,3.70
2022-12-26T12:24:07.234Z,4.32
2022-12-26T12:26:54.895Z,3.03
2022-12-26T12:30:04.425Z,3.90
2022-12-26T12:32:50.703Z,2.13
2022-12-26T12:35:44.737Z,2.03
2022-12-26T12:38:33.213Z,1.80
2022-12-26T12:41:38.654Z,1.27
2022-12-26T12:44:19.612Z,2.17
2022-12-26T12:47:18.824Z,1.88
2022-12-26T12:50:05.128Z,2.95
2022-12-26T12:52:58.179Z,3.92
2022-12-26T12:56:02.064Z,2.80
2022-12-26T12:58:44.650Z,4.68
2022-12-26T13:01:21.643Z,2.45
2022-12-26T13:04:07.194Z,1.77
2022-12-26T13:06:46.424Z,2.63
2022-12-26T13:09:26.414Z,2.13
2022-12-26T13:12:03.318Z,1.30
2022-12-26T13:14:43.017Z,1.23
2022-12-26T13:17:21.557Z,1.83
2022-12-26T13:20:02.475Z,1.75
2022-12-26T13:22:54.030Z,3.80
2022-12-26T13:25:34.075Z,1.88
2022-12-26T13:28:14.662Z,1.63
2022-12-26T13:30:46.023Z,1.05
2022-12-26T13:33:18.652Z,1.73
2022-12-26T13:35:59.543Z,1.95
2022-12-26T13:39:31.676Z,2.38
2022-12-26T13:42:44.813Z,1.83
2022-12-26T13:45:50.566Z,2.70
2022-12-26T13:49:08.187Z,1.25
2022-12-26T13:51:59.237Z,1.20
2022-12-26T13:54:32.180Z,1.88
2022-12-26T13:57:44.130Z,2.20
2022-12-26T14:00:27.700Z,0.93
2022-12-26T14:03:54.875Z,1.58
2022-12-26T14:07:04.402Z,3.00
2022-12-26T14:10:27.455Z,2.67
2022-12-26T14:13:39.183Z,1.50
2022-12-26T14:16:22.156Z,1.67
2022-12-26T14:19:03.714Z,1.80
2022-12-26T14:21:49.300Z,2.75
2022-12-26T14:24:35.274Z,3.60
2022-12-26T14:27:32.988Z,1.70
2022-12-26T14:30:23.382Z,3.47
2022-12-26T14:33:27.389Z,2.67
2022-12-26T14:36:16.776Z,2.03
2022-12-26T14:38:58.405Z,2.15
2022-12-26T14:41:42.061Z,2.58
2022-12-26T14:44:20.484Z,3.05
2022-12-26T14:47:05.839Z,2.22
2022-12-26T14:49:45.157Z,1.08
2022-12-26T14:52:41.270Z,0.55
2022-12-26T14:55:51.246Z,1.90
2022-12-26T14:58:45.205Z,2.35
2022-12-26T15:01:51.445Z,3.30
2022-12-26T15:05:04.257Z,3.80
2022-12-26T15:08:20.726Z,1.73
2022-12-26T15:11:34.213Z,3.63
2022-12-26T15:14:52.548Z,3.40
2022-12-26T15:17:36.440Z,3.93
2022-12-26T15:20:47.189Z,4.13
2022-12-26T15:24:12.948Z,4.30
2022-12-26T15:27:21.225Z,5.53
2022-12-26T15:30:40.876Z,4.13
2022-12-26T15:33:23.830Z,3.90
2022-12-26T15:36:08.825Z,2.20
2022-12-26T15:38:49.089Z,2.00
2022-12-26T15:41:38.799Z,3.80
2022-12-26T15:44:30.515Z,2.93
2022-12-26T15:47:21.345Z,2.60
2022-12-26T15:50:13.474Z,3.87
2022-12-26T15:53:03.563Z,1.97
2022-12-26T15:55:49.006Z,1.70
2022-12-26T15:58:56.856Z,2.90
2022-12-26T16:01:42.386Z,2.00
2022-12-26T16:04:24.067Z,1.13
2022-12-26T16:07:12.188Z,3.53
2022-12-26T16:09:49.840Z,3.20
2022-12-26T16:12:30.223Z,2.63
2022-12-26T16:15:19.222Z,4.10
2022-12-26T16:17:49.331Z,3.53
2022-12-26T16:20:44.081Z,4.67
2022-12-26T16:23:16.329Z,3.77
2022-12-26T16:25:54.361Z,5.37
2022-12-26T16:28:34.457Z,3.70
2022-12-26T16:31:06.274Z,2.53
2022-12-26T16:33:43.792Z,2.23
2022-12-26T16:36:22.790Z,2.07
2022-12-26T16:38:54.036Z,6.43
2022-12-26T16:41:32.891Z,1.97
2022-12-26T16:44:32.483Z,3.53
2022-12-26T16:47:07.509Z,5.43
2022-12-26T16:49:38.457Z,5.00
2022-12-26T16:52:08.927Z,5.53
2022-12-26T16:54:43.280Z,2.47
2022-12-26T16:57:21.497Z,5.27
2022-12-26T16:59:58.069Z,3.17
2022-12-26T17:02:33.859Z,7.30
2022-12-26T17:05:09.372Z,4.40
2022-12-26T17:07:48.037Z,4.70
2022-12-26T17:10:25.115Z,2.93
2022-12-26T17:12:58.460Z,6.90
2022-12-26T17:15:35.930Z,3.17
2022-12-26T17:18:49.689Z,3.77
2022-12-26T17:21:35.728Z,5.80
2022-12-26T17:24:28.133Z,3.17
2022-12-26T17:27:23.408Z,4.87
2022-12-26T17:30:03.310Z,6.77
2022-12-26T17:32:45.878Z,5.63
2022-12-26T17:35:25.612Z,3.27
2022-12-26T17:38:05.624Z,6.53
2022-12-26T17:40:38.917Z,3.13
2022-12-26T17:43:25.552Z,5.47
2022-12-26T17:45:55.665Z,4.33
2022-12-26T17:48:29.192Z,3.70
2022-12-26T17:51:04.445Z,4.07
2022-12-26T17:53:38.545Z,3.70
2022-12-26T17:56:13.982Z,4.70
2022-12-26T17:58:44.592Z,2.70
2022-12-26T18:01:20.714Z,3.60
2022-12-26T18:03:54.727Z,3.90
2022-12-26T18:06:30.804Z,3.10
2022-12-26T18:09:01.122Z,7.37
2022-12-26T18:11:48.522Z,9.87
2022-12-26T18:14:21.921Z,7.97
2022-12-26T18:16:54.790Z,8.00
2022-12-26T18:19:27.444Z,9.13
2022-12-26T18:21:57.578Z,9.00
2022-12-26T18:24:27.694Z,10.47
2022-12-26T18:26:59.083Z,7.80
2022-12-26T18:29:29.152Z,9.20
2022-12-26T18:31:59.999Z,8.73
2022-12-26T18:34:35.363Z,7.40
2022-12-26T18:37:05.481Z,9.20
2022-12-26T18:39:36.161Z,9.03
2022-12-26T18:42:06.760Z,9.67
2022-12-26T18:44:36.825Z,5.57
2022-12-26T18:47:07.348Z,18.00
2022-12-26T18:49:40.010Z,10.70
2022-12-26T18:52:10.268Z,9.60
2022-12-26T18:54:40.648Z,6.73
2022-12-26T18:57:20.476Z,7.03
2022-12-26T18:59:51.331Z,4.40
2022-12-26T19:02:23.496Z,7.53
2022-12-26T19:04:56.284Z,10.70
2022-12-26T19:07:26.466Z,5.17
2022-12-26T19:09:59.419Z,6.83
2022-12-26T19:12:30.255Z,9.23
2022-12-26T19:15:00.341Z,8.03
2022-12-26T19:17:30.459Z,9.67
2022-12-26T19:20:03.152Z,9.97
2022-12-26T19:22:33.534Z,9.43
2022-12-26T19:25:03.667Z,9.17
2022-12-26T19:27:33.804Z,7.90
2022-12-26T19:30:03.886Z,8.17
2022-12-26T19:32:33.974Z,7.47
2022-12-26T19:35:08.202Z,7.67
2022-12-26T19:37:39.759Z,7.50
2022-12-26T19:40:18.416Z,10.73
2022-12-26T19:42:51.570Z,9.10
2022-12-26T19:45:22.021Z,8.60
2022-12-26T19:47:53.513Z,5.93
2022-12-26T19:50:26.169Z,6.23
2022-12-26T19:52:56.307Z,7.80
2022-12-26T19:55:26.571Z,4.97
2022-12-26T19:58:01.991Z,4.60
2022-12-26T20:00:32.073Z,7.20
2022-12-26T20:03:02.237Z,9.47
2022-12-26T20:05:34.923Z,4.57
2022-12-26T20:08:05.069Z,6.70
2022-12-26T20:10:35.193Z,7.73
2022-12-26T20:13:06.102Z,6.73
2022-12-26T20:15:36.819Z,9.93
2022-12-26T20:18:10.839Z,4.67
2022-12-26T20:20:54.140Z,5.90
2022-12-26T20:23:24.525Z,7.97
2022-12-26T20:25:54.714Z,5.23
2022-12-26T20:28:24.965Z,6.10
2022-12-26T20:31:01.805Z,7.27
2022-12-26T20:33:32.964Z,7.50
2022-12-26T20:36:12.981Z,6.60
2022-12-26T20:38:44.444Z,4.40
2022-12-26T20:41:16.142Z,4.93
2022-12-26T20:43:48.849Z,5.63
2022-12-26T20:46:22.292Z,6.70
2022-12-26T20:48:53.056Z,6.50
2022-12-26T20:51:36.374Z,6.20
2022-12-26T20:54:08.401Z,6.53
2022-12-26T20:56:41.889Z,2.73
2022-12-26T20:59:12.269Z,3.40
2022-12-26T21:01:42.628Z,7.30
2022-12-26T21:04:21.974Z,10.37
2022-12-26T21:06:57.814Z,6.97
2022-12-26T21:09:27.912Z,5.97
2022-12-26T21:11:58.000Z,4.20
2022-12-26T21:14:28.079Z,6.13
2022-12-26T21:17:01.326Z,4.97
2022-12-26T21:19:32.253Z,9.70
2022-12-26T21:22:05.002Z,7.43
2022-12-26T21:24:35.835Z,8.97
2022-12-26T21:27:07.090Z,12.90
2022-12-26T21:29:40.229Z,10.50
2022-12-26T21:32:10.937Z,10.17
2022-12-26T21:34:41.677Z,8.67
2022-12-26T21:37:26.833Z,5.63
2022-12-26T21:39:56.920Z,9.93
2022-12-26T21:42:27.048Z,13.73
2022-12-26T21:44:58.657Z,12.80
2022-12-26T21:47:28.727Z,12.27
2022-12-26T21:49:58.813Z,11.53
2022-12-26T21:52:31.476Z,8.23
2022-12-26T21:55:28.694Z,12.40
2022-12-26T21:57:59.801Z,8.77
2022-12-26T22:00:33.310Z,9.13
2022-12-26T22:03:16.097Z,9.37
2022-12-26T22:05:46.217Z,8.97
2022-12-26T22:08:22.523Z,7.00
2022-12-26T22:11:05.128Z,10.17
2022-12-26T22:13:45.549Z,8.10
2022-12-26T22:16:16.395Z,7.97
2022-12-26T22:18:49.575Z,9.33
2022-12-26T22:21:24.155Z,11.07
2022-12-26T22:23:59.128Z,10.00
2022-12-26T22:26:31.620Z,9.63
2022-12-26T22:29:01.930Z,9.53
2022-12-26T22:31:34.781Z,14.37
2022-12-26T22:34:07.505Z,11.13
2022-12-26T22:36:39.359Z,14.17
2022-12-26T22:39:17.448Z,10.40
2022-12-26T22:41:48.358Z,9.50
2022-12-26T22:44:19.274Z,13.50
2022-12-26T22:46:49.762Z,16.03
2022-12-26T22:49:19.853Z,10.70
2022-12-26T22:51:52.692Z,10.63
2022-12-26T22:54:25.346Z,12.90
2022-12-26T22:56:55.549Z,12.47
2022-12-26T22:59:58.022Z,19.67
2022-12-26T23:02:16.260Z,15.40
2022-12-26T23:04:47.303Z,11.57
2022-12-26T23:07:23.525Z,20.40
2022-12-26T23:09:58.517Z,26.40
2022-12-26T23:12:41.989Z,12.93
2022-12-26T23:15:19.680Z,13.63
2022-12-26T23:18:12.703Z,13.67
2022-12-26T23:20:56.586Z,9.07
2022-12-26T23:23:30.873Z,14.63
2022-12-26T23:26:05.158Z,15.87
2022-12-26T23:28:47.675Z,6.30
2022-12-26T23:31:18.362Z,7.23
2022-12-26T23:33:48.731Z,5.30
2022-12-26T23:36:18.898Z,8.37
2022-12-26T23:38:51.613Z,5.30
2022-12-26T23:41:24.377Z,6.27
2022-12-26T23:43:54.434Z,6.50
2022-12-26T23:46:24.627Z,8.43
2022-12-26T23:48:57.741Z,6.30
2022-12-26T23:51:28.122Z,13.23
2022-12-26T23:53:58.391Z,9.70
2022-12-26T23:56:31.134Z,12.97
2022-12-26T23:59:01.955Z,12.60
